Overton RPC :: 100-B

liberation: 2021-08-28  07:30     latitude: 34.861244     longitude: -85.505535 61 birds
# LOFT PRING MILES ARRIVAL SPEED ToWin
1 VALHALLA LOFTS IF21-VALH-0180 107.559 2021-08-28 10:16:14.620 1138.717 00:00:00
2 VALHALLA LOFTS IF21-VALH-0123 107.559 2021-08-28 10:16:21.730 1137.906 00:00:07
3 VALHALLA LOFTS IF21-VALH-0103 107.559 2021-08-28 10:16:38.552 1135.991 00:00:24
4 VALHALLA LOFTS IF21-VALH-0172 107.559 2021-08-28 10:58:06.857 909.618 00:41:52
5 VALHALLA LOFTS IF21-E-1598 107.559 2021-08-28 10:58:19.793 908.676 00:42:05
6 VALHALLA LOFTS IF21-E-1600 107.559 2021-08-28 10:58:20.152 908.650 00:42:06
7 VALHALLA LOFTS IF21-E-1580 107.559 2021-08-28 10:58:26.844 908.164 00:42:12
8 VALHALLA LOFTS IF21-VALH-0135 107.559 2021-08-28 10:58:30.357 907.909 00:42:16
9 HONEY FARM LOFT IF21-VALH-0141 106.823 2021-08-28 11:02:46.724 883.590 00:47:40
10 VALHALLA LOFTS IF21-E-1445 107.559 2021-08-28 11:10:08.819 859.900 00:53:54
11 VALHALLA LOFTS IF21-E-1412 107.559 2021-08-28 11:10:36.891 858.077 00:54:22
12 VALHALLA LOFTS IF21-E-1446 107.559 2021-08-28 11:11:04.543 856.288 00:54:50
13 VALHALLA LOFTS IF21-E-1442 107.559 2021-08-28 11:15:41.339 838.785 00:59:27
14 VALHALLA LOFTS AU21-ARPU-8999 107.559 2021-08-28 11:31:33.234 783.695 01:15:19
15 VALHALLA LOFTS IF21-E-1413 107.559 2021-08-28 11:31:54.703 782.535 01:15:40
16 VALHALLA LOFTS IF21-VALH-0154 107.559 2021-08-28 11:43:46.783 745.940 01:27:32
17 VALHALLA LOFTS IF21-E-1450 107.559 2021-08-28 11:50:01.327 728.032 01:33:47
18 VALHALLA LOFTS IF21-E-1592 107.559 2021-08-28 11:56:34.747 710.125 01:40:20
19 VALHALLA LOFTS IF21-VALH-0147 107.559 2021-08-28 12:17:45.518 657.859 02:01:31
20 VALHALLA LOFTS IF21-VALH-0130 107.559 2021-08-28 12:17:48.515 657.744 02:01:34
21 VALHALLA LOFTS IF21-VALH-0149 107.559 2021-08-28 12:17:56.452 657.442 02:01:42
22 VALHALLA LOFTS IF21-E-1416 107.559 2021-08-28 12:18:11.009 656.889 02:01:56
23 VALHALLA LOFTS IF21-VALH-0111 107.559 2021-08-28 12:24:06.730 643.647 02:07:52
24 HONEY FARM LOFT AU21-NASH-9559 106.823 2021-08-28 12:33:29.546 619.486 02:18:23
25 VALHALLA LOFTS IF21-E-1591 107.559 2021-08-28 13:35:05.212 518.519 03:18:51
26 PHILBETTER LOFT IF21-E-1421 104.389 2021-08-28 13:32:14.650 507.187 03:20:54
27 VALHALLA LOFTS IF21-E-1443 107.559 2021-08-28 14:40:17.596 439.943 04:24:03
28 VALHALLA LOFTS IF21-VALH-0177 107.559 2021-08-28 14:48:03.032 432.152 04:31:48
29 PHILBETTER LOFT IF21-E-1556 104.389 2021-08-28 15:06:21.416 402.592 04:55:01
30 PHILBETTER LOFT IF21-E-1561 104.389 2021-08-28 15:14:39.339 395.401 05:03:19
31 PHILBETTER LOFT IF21-E-1551 104.389 2021-08-28 15:17:48.872 392.731 05:06:28
32 VALHALLA LOFTS IF21-E-1415 107.559 2021-08-28 15:59:06.440 371.836 05:42:52
33 VALHALLA LOFTS IF21-VALH-0198 107.559 2021-08-28 16:20:58.005 356.528 06:04:43
34 VALHALLA LOFTS AU21-BREW-2151 107.559 2021-08-28 16:35:23.345 347.100 06:19:09
35 PHILBETTER LOFT IF21-E-1554 104.389 2021-08-28 18:21:53.063 281.838 08:10:32
36 LET IT GO LOFT IF21-ORP-0409 109.108 2021-08-29 09:07:13.572 204.692 12:49:30
37 VALHALLA LOFTS IF21-VALH-0146 107.559 2021-08-29 08:57:02.020 204.003 12:41:42
38 LET IT GO LOFT IF21-E-1401 109.108 2021-08-29 09:31:02.419 199.624 13:13:19
39 VALHALLA LOFTS IF21-VALH-0158 107.559 2021-08-29 09:26:48.118 197.662 13:11:28
40 VALHALLA LOFTS IF21-VALH-0114 107.559 2021-08-29 10:11:06.693 188.921 13:55:47
41 LET IT GO LOFT AU21-ARPU-8956 109.108 2021-08-29 12:02:53.318 172.409 15:45:10
42 LET IT GO LOFT IF21-ORP-0403 109.108 2021-08-29 13:01:45.345 163.754 16:44:02
43 VALHALLA LOFTS IF21-VALH-0167 107.559 2021-08-29 16:30:18.745 137.055 20:14:59
44 HONEY FARM LOFT IF21-ORP-0436 106.823 2021-08-30 09:27:33.507 104.604 27:12:14
BIG MOMMA'S LOFT IF21-E-1390 0 0000-00-00 00:00:00.000 0.000 00:00:00
HONEY FARM LOFT AU21-NASH-9544 0 0000-00-00 00:00:00.000 0.000 00:00:00
HONEY FARM LOFT AU21-NASH-9588 0 0000-00-00 00:00:00.000 0.000 00:00:00
HONEY FARM LOFT IF21-FOYS-5480 0 0000-00-00 00:00:00.000 0.000 00:00:00
HONEY FARM LOFT IF21-ORP-0434 0 0000-00-00 00:00:00.000 0.000 00:00:00
HONEY FARM LOFT IF21-ORP-0438 0 0000-00-00 00:00:00.000 0.000 00:00:00
HONEY FARM LOFT IF21-VALH-0120 0 0000-00-00 00:00:00.000 0.000 00:00:00
HONEY FARM LOFT IF21-VALH-0142 0 0000-00-00 00:00:00.000 0.000 00:00:00
LET IT GO LOFT IF21-E-1451 0 0000-00-00 00:00:00.000 0.000 00:00:00
LET IT GO LOFT IF21-E-1454 0 0000-00-00 00:00:00.000 0.000 00:00:00
LET IT GO LOFT IF21-ORP-0430 0 0000-00-00 00:00:00.000 0.000 00:00:00
LET IT GO LOFT IF21-ORP-0435 0 0000-00-00 00:00:00.000 0.000 00:00:00
LET IT GO LOFT IF21-ORP-0450 0 0000-00-00 00:00:00.000 0.000 00:00:00
VALHALLA LOFTS IF21-VALH-0134 0 0000-00-00 00:00:00.000 0.000 00:00:00
VALHALLA LOFTS IF21-VALH-0138 0 0000-00-00 00:00:00.000 0.000 00:00:00
VALHALLA LOFTS IF21-VALH-0181 0 0000-00-00 00:00:00.000 0.000 00:00:00
VALHALLA LOFTS IF21-VALH-0183 0 0000-00-00 00:00:00.000 0.000 00:00:00